Date,TemperatureHighF,TemperatureAvgF,TemperatureLowF,DewpointHighF,DewpointAvgF,DewpointLowF,HumidityHigh,HumidityAvg,HumidityLow,PressureMaxIn,PressureMinIn,WindSpeedMaxMPH,WindSpeedAvgMPH,GustSpeedMaxMPH,PrecipitationSumIn
2013-1-1,31.8,21.6,13.6,18.7,11.3,4.4,86,63,37,29.71,29.58,3,0,7,0.00
2013-1-2,36.1,25.2,18.1,14.2,10.0,5.0,66,48,32,29.86,29.68,6,1,12,0.00
2013-1-3,38.7,26.7,13.4,10.0,4.5,1.2,56,36,22,29.87,29.74,4,1,9,0.00
2013-1-4,48.8,34.5,25.3,19.3,11.5,4.9,52,37,20,29.77,29.60,2,0,6,0.00
2013-1-5,40.7,33.1,24.8,15.7,11.6,8.2,51,38,30,29.83,29.61,8,2,15,0.00
2013-1-6,44.6,37.6,32.4,13.9,10.6,2.6,45,32,24,29.73,29.50,2,0,4,0.00
2013-1-7,53.5,42.0,28.6,21.8,12.8,7.1,64,33,16,29.59,29.39,7,1,13,0.00
2013-1-8,52.3,43.1,29.7,22.4,18.1,12.4,66,37,25,29.79,29.36,8,2,16,0.00
2013-1-9,56.4,40.6,28.0,23.9,19.5,17.4,63,43,21,29.88,29.57,4,1,10,0.00
2013-1-10,40.2,33.5,26.5,22.2,18.6,12.8,65,53,35,29.57,29.01,3,0,6,0.00
2013-1-11,42.7,30.1,7.3,24.7,14.7,0.4,83,55,31,29.34,28.85,11,3,20,0.00
2013-1-12,10.1,7.5,3.4,6.2,3.4,0.4,88,80,73,29.55,29.34,3,0,9,0.00
2013-1-13,14.7,8.2,2.4,6.6,2.3,-1.4,83,74,60,29.66,29.53,0,0,10,0.00
2013-1-14,16.1,8.1,3.0,5.7,1.3,-2.7,82,70,53,29.70,29.59,0,0,7,0.00
2013-1-15,34.9,20.2,0.7,15.9,6.2,-4.9,79,54,33,29.68,29.60,0,0,8,0.00
2013-1-16,54.7,41.3,29.9,21.8,18.5,13.4,52,40,25,29.94,29.68,0,0,10,0.00
2013-1-17,52.9,37.9,26.8,22.9,18.4,15.4,64,46,23,30.04,29.80,4,0,8,0.00
2013-1-18,60.1,45.6,28.8,20.1,10.1,5.6,58,26,11,29.79,29.62,7,1,16,0.00
2013-1-19,61.5,48.9,32.2,13.7,7.5,4.2,45,19,10,29.82,29.63,8,2,16,0.00
2013-1-20,50.0,35.1,21.9,18.1,13.6,10.9,70,41,21,29.83,29.70,11,2,17,0.00
2013-1-21,58.7,37.6,18.8,21.0,12.6,2.6,78,43,14,29.81,29.63,8,2,20,0.00
2013-1-22,63.9,49.6,28.2,19.3,6.1,-4.5,53,18,7,29.74,29.59,6,1,16,0.00
2013-1-23,64.9,50.8,34.5,13.4,4.0,-5.8,34,16,8,29.77,29.68,6,1,14,0.00
2013-1-24,63.7,45.3,29.1,27.3,18.5,10.8,52,35,15,29.74,29.54,6,1,17,0.00
2013-1-25,54.5,42.9,32.8,29.0,26.0,22.3,66,51,35,29.76,29.64,3,0,8,0.00
2013-1-26,51.4,42.5,31.0,36.5,28.4,22.8,82,58,40,29.64,29.33,2,0,5,0.00
2013-1-27,57.6,45.0,34.4,37.3,31.5,21.7,86,62,37,29.36,29.29,5,1,12,0.00
2013-1-28,50.0,36.2,26.0,29.7,24.2,17.8,92,64,40,29.32,29.13,7,1,12,0.00
2013-1-29,35.2,24.8,17.1,24.0,17.6,10.4,91,73,39,29.50,29.24,9,1,16,0.14
2013-1-30,39.1,28.0,12.6,19.4,12.8,3.5,77,53,32,29.50,29.34,13,2,23,0.02
2013-1-31,47.8,36.6,24.4,25.3,19.4,14.5,77,51,29,29.71,29.44,12,3,24,0.01
2013-2-1,49.8,35.4,21.7,26.9,19.3,14.7,87,56,28,29.76,29.60,11,3,22,0.00
2013-2-2,58.5,39.9,25.5,25.1,18.8,11.1,76,46,16,29.89,29.76,5,1,13,0.00
2013-2-3,47.7,38.4,26.9,20.4,15.4,7.3,56,39,24,29.83,29.47,3,0,8,0.00
2013-2-4,56.7,43.1,27.2,16.7,11.4,6.5,51,28,15,29.55,29.41,6,1,17,0.00
2013-2-5,61.0,46.3,29.2,23.2,18.1,12.7,51,33,20,29.62,29.43,6,1,13,0.00
2013-2-6,53.3,43.7,35.8,32.2,24.0,19.5,86,48,29,29.66,29.39,6,1,14,0.00
2013-2-7,49.5,37.8,27.1,31.8,20.7,10.0,87,54,24,29.75,29.59,4,1,13,0.00
2013-2-8,51.0,35.4,21.9,20.0,13.8,8.9,65,42,20,29.59,29.27,4,0,8,0.00
2013-2-9,37.3,30.8,25.1,28.1,20.1,9.8,89,64,37,29.28,29.11,5,1,11,0.00
2013-2-10,36.1,28.4,20.9,21.6,16.0,8.2,81,60,32,29.61,29.14,6,1,12,0.00
2013-2-11,27.3,22.2,16.1,17.5,14.9,11.6,85,71,58,29.62,29.52,4,1,10,0.00
2013-2-12,43.4,29.9,14.7,12.8,6.6,-2.3,77,40,15,29.60,29.55,3,1,10,0.00
2013-2-13,48.3,35.7,24.5,15.2,12.5,8.2,51,37,23,29.60,29.46,8,2,16,0.00
2013-2-14,36.5,27.3,21.7,23.5,19.2,12.5,85,69,37,29.85,29.56,6,1,15,0.00
2013-2-15,44.0,28.5,16.2,20.3,15.4,8.4,82,59,22,29.85,29.77,6,1,13,0.02
2013-2-16,56.1,44.5,22.0,19.6,14.3,10.2,73,31,19,29.77,29.53,10,4,23,0.00
2013-2-17,60.3,48.4,33.1,18.0,7.5,1.9,48,20,10,29.54,29.13,9,3,21,0.00
2013-2-18,40.7,32.1,23.2,22.2,12.1,3.0,72,45,21,29.65,29.33,10,2,19,0.00
2013-2-19,39.8,28.6,19.7,16.1,12.0,8.1,64,48,30,29.65,29.36,4,1,8,0.00
2013-2-20,37.3,25.2,19.4,26.5,18.0,13.5,92,74,45,29.37,29.19,6,1,13,0.00
2013-2-21,29.1,20.9,14.3,20.9,17.1,12.1,91,83,67,29.44,29.26,2,0,7,0.24
2013-2-22,36.2,26.1,17.6,21.8,16.8,9.3,88,67,50,29.50,29.37,4,1,8,0.08
2013-2-23,40.2,29.1,16.5,26.6,18.1,7.3,91,61,41,29.39,29.17,5,1,9,0.02
2013-2-24,28.7,26.2,23.5,26.9,24.2,19.0,98,91,79,29.67,29.29,3,0,16,0.01
2013-2-25,35.2,24.6,14.1,22.4,16.8,10.7,85,71,46,29.66,29.39,0,0,16,0.12
2013-2-26,38.1,27.1,17.6,26.3,19.4,13.6,84,71,53,29.68,29.35,0,0,20,0.05
2013-2-27,38.1,28.0,18.0,16.2,12.3,7.9,67,51,28,29.80,29.69,6,1,11,0.00
2013-2-28,44.3,33.5,19.8,19.1,11.7,6.5,66,40,23,29.81,29.71,8,1,17,0.00
2013-3-1,45.3,37.1,27.8,23.8,19.9,13.6,64,49,38,29.88,29.78,6,2,13,0.00
2013-3-2,62.5,48.4,33.6,29.7,24.1,20.3,62,40,21,29.87,29.62,4,1,11,0.00
2013-3-3,61.7,51.4,40.8,28.3,23.7,20.6,52,34,21,29.61,29.25,9,2,20,0.00
2013-3-4,49.7,31.2,19.6,26.9,22.6,13.2,85,70,38,29.78,29.26,9,1,16,0.04
2013-3-5,38.4,25.9,13.4,22.0,16.6,8.3,82,66,48,29.83,29.71,3,0,7,0.08
2013-3-6,57.3,38.2,21.8,31.7,25.0,17.3,82,60,28,29.71,29.42,4,0,7,0.00
2013-3-7,64.3,47.0,33.4,32.0,26.8,21.3,72,49,19,29.55,29.44,8,2,14,0.00
2013-3-8,45.6,37.5,30.5,32.6,29.3,25.7,82,72,58,29.56,29.27,3,0,7,0.00
2013-3-9,35.3,31.8,26.7,32.5,28.1,17.6,96,86,61,29.66,29.22,6,1,13,0.04
2013-3-10,46.2,34.2,18.1,24.1,17.5,11.5,74,51,30,29.69,29.59,4,1,8,0.26
2013-3-11,54.4,41.8,31.4,29.6,22.2,16.9,90,49,28,29.73,29.50,10,3,26,0.00
2013-3-12,37.4,30.6,24.7,29.3,25.7,21.9,94,81,63,29.89,29.72,2,0,6,0.28
2013-3-13,65.0,43.8,26.5,34.4,27.0,22.1,89,57,20,29.86,29.74,4,1,10,0.02
2013-3-14,73.4,58.7,48.2,31.8,24.3,17.5,40,27,13,29.90,29.74,4,1,10,0.00
2013-3-15,74.6,64.7,56.8,27.5,23.8,20.8,32,21,13,29.73,29.47,10,3,20,0.00
2013-3-16,58.0,47.0,38.8,33.5,31.3,27.2,75,55,31,29.60,29.40,7,2,12,0.00
2013-3-17,57.7,44.7,34.2,29.6,23.7,15.2,76,46,21,29.42,29.12,11,3,27,0.00
2013-3-18,48.7,39.9,32.3,16.5,12.3,6.0,45,32,22,29.51,29.42,10,3,23,0.00
2013-3-19,54.5,43.0,28.0,18.2,7.2,-3.5,62,25,9,29.94,29.50,10,4,21,0.00
2013-3-20,49.9,34.8,21.0,23.6,19.9,15.5,79,56,33,29.93,29.32,4,0,9,0.00
2013-3-21,57.0,45.3,34.5,36.1,23.2,12.2,67,42,23,29.40,29.11,10,2,19,0.02
2013-3-22,44.1,33.5,26.1,29.0,20.3,10.4,94,60,34,29.50,29.25,13,3,23,0.00
2013-3-23,24.7,20.0,16.6,24.2,17.0,10.4,98,87,71,29.74,29.47,9,2,16,0.05
2013-3-24,30.8,20.4,9.5,17.1,11.7,4.3,85,66,46,29.77,29.64,3,0,6,0.18
2013-3-25,36.1,24.7,14.8,18.2,14.6,11.4,87,65,36,29.82,29.74,4,1,9,0.01
2013-3-26,44.3,31.7,18.3,26.8,19.7,11.4,74,61,39,29.74,29.49,5,1,10,0.00
2013-3-27,51.1,41.0,31.1,37.2,30.5,24.9,83,66,54,29.68,29.58,6,1,10,0.00
2013-3-28,62.9,47.9,34.4,36.0,32.0,29.6,87,59,29,29.72,29.63,8,1,12,0.00
2013-3-29,65.9,53.2,40.9,33.6,30.0,26.7,64,43,23,29.73,29.64,6,1,14,0.00
2013-3-30,65.5,51.1,37.9,38.3,30.9,24.7,80,50,21,29.83,29.60,10,3,19,0.00
2013-3-31,68.5,53.0,35.7,34.8,27.8,22.7,80,44,17,29.81,29.52,6,2,11,0.00
2013-4-1,52.2,40.7,29.7,33.4,29.5,24.9,82,65,46,29.75,29.60,8,2,13,0.02
2013-4-2,39.4,36.8,33.7,35.4,32.9,31.0,95,86,74,29.72,29.64,4,1,8,0.50
2013-4-3,63.0,48.3,36.3,40.4,35.2,31.1,95,65,31,29.73,29.63,4,1,9,0.00
2013-4-4,69.7,57.9,43.4,35.8,30.6,25.7,64,37,19,29.76,29.59,5,2,12,0.00
2013-4-5,74.3,60.4,49.9,35.1,28.0,22.3,52,31,14,29.59,29.30,11,2,23,0.00
2013-4-6,63.8,54.4,46.8,34.6,26.0,21.7,50,33,21,29.54,29.43,9,2,17,0.00
2013-4-7,63.9,53.4,41.2,34.4,29.6,22.6,73,42,21,29.46,29.28,10,2,20,0.00
2013-4-8,61.5,45.5,26.9,35.6,31.0,25.3,93,59,31,29.40,29.00,15,3,26,0.00
2013-4-9,26.6,18.4,12.0,25.0,14.6,9.1,93,84,73,29.76,29.40,5,2,12,0.00
2013-4-10,28.9,19.2,7.5,19.3,12.7,4.5,86,73,53,29.72,29.42,4,1,10,0.16
2013-4-11,54.3,37.5,17.9,34.6,26.4,15.0,88,67,38,29.50,29.29,7,1,13,0.00
2013-4-12,58.8,42.7,33.7,33.8,30.6,25.1,81,64,28,29.57,29.44,8,2,16,0.00
2013-4-13,66.4,47.9,31.0,38.5,29.8,21.5,91,57,18,29.54,28.98,6,2,14,0.06
2013-4-14,47.5,41.2,36.4,38.3,20.3,9.5,89,46,22,29.33,29.09,8,3,22,0.24
2013-4-15,38.5,28.7,23.3,28.8,23.4,15.9,92,81,39,29.59,29.31,4,1,11,0.02
2013-4-16,34.5,29.6,23.5,29.2,26.2,21.2,95,86,72,29.59,29.41,0,0,1,0.10
2013-4-17,32.9,26.3,20.2,29.9,24.5,17.5,98,92,82,29.73,29.50,0,0,1,0.04
2013-4-18,38.2,27.3,14.8,20.6,15.3,11.6,88,62,40,29.72,29.64,2,1,8,0.49
2013-4-19,55.4,42.8,29.3,25.4,19.6,14.4,53,39,26,29.68,29.53,4,1,12,0.08
2013-4-20,57.2,46.3,34.4,34.6,30.1,24.6,76,54,38,29.60,29.48,6,1,10,0.00
2013-4-21,62.2,49.9,37.0,34.7,28.7,20.6,80,48,20,29.66,29.56,9,2,16,0.00
2013-4-22,51.0,34.3,22.9,37.6,28.0,21.0,94,79,42,29.88,29.48,7,1,15,0.08
2013-4-23,34.9,27.0,19.3,22.4,19.2,15.3,93,72,46,29.84,29.71,0,0,0,0.46
2013-4-24,56.0,41.1,23.8,23.9,19.6,16.0,72,44,22,29.79,29.68,4,1,12,0.00
2013-4-25,67.7,51.6,32.7,31.4,23.0,16.9,56,35,16,29.75,29.50,5,2,10,0.00
2013-4-26,68.3,55.7,42.0,26.8,22.7,18.6,54,29,16,29.83,29.60,5,2,11,0.00
2013-4-27,74.5,60.9,43.7,26.9,21.5,14.4,48,24,11,29.82,29.63,6,2,18,0.00
2013-4-28,77.9,66.9,53.3,34.1,25.4,20.4,35,21,13,29.64,29.45,8,2,14,0.00
2013-4-29,79.0,67.6,51.1,37.6,29.9,23.7,54,27,13,29.55,29.22,6,3,14,0.00
2013-4-30,70.7,51.6,34.0,39.5,33.9,23.8,94,55,17,29.62,29.23,10,3,18,0.16
2013-5-1,34.6,30.4,24.5,33.2,28.4,22.7,98,91,80,30.19,29.62,3,0,9,0.28
2013-5-2,45.2,34.2,20.2,24.7,21.2,16.5,92,62,33,30.25,30.01,2,0,5,0.46
2013-5-3,59.4,46.6,30.6,31.5,27.1,22.5,72,49,28,30.01,29.68,4,1,10,0.00
2013-5-4,58.3,48.3,37.9,34.5,29.8,25.1,66,50,33,29.82,29.68,5,2,11,0.00
2013-5-5,55.6,45.8,34.7,38.1,29.0,23.6,69,53,34,29.82,29.68,6,1,12,0.00
2013-5-6,64.8,54.4,39.7,37.0,34.6,30.4,74,48,31,29.68,29.51,4,1,11,0.00
2013-5-7,71.6,55.8,46.7,45.5,38.5,33.3,81,54,27,29.63,29.48,6,1,12,0.02
2013-5-8,60.7,50.5,45.5,45.7,41.2,35.5,94,72,48,29.71,29.55,6,2,15,0.40
2013-5-9,58.3,50.1,44.4,44.3,41.5,36.7,94,73,49,29.82,29.68,7,1,14,0.24
2013-5-10,68.5,54.9,42.1,43.0,38.2,34.7,77,55,30,29.92,29.78,5,1,12,0.00
2013-5-11,69.0,57.7,48.3,42.0,38.7,35.3,64,50,29,30.02,29.83,5,1,12,0.00
2013-5-12,78.0,66.5,50.9,39.3,35.1,32.4,63,33,19,29.85,29.72,5,1,9,0.00
2013-5-13,85.3,74.0,62.5,42.7,37.3,33.7,40,27,16,29.79,29.65,5,2,10,0.00
2013-5-14,88.3,74.0,64.6,42.0,37.1,29.9,36,27,12,29.65,29.54,7,2,14,0.00
2013-5-15,80.9,66.7,56.8,49.2,42.2,36.0,74,43,24,29.61,29.50,14,2,30,0.00
2013-5-16,80.7,66.5,52.9,49.6,43.7,36.4,78,48,21,29.57,29.40,7,2,14,0.00
2013-5-17,87.2,71.0,54.6,47.6,37.3,19.3,72,35,8,29.51,29.34,7,2,16,0.00
2013-5-18,78.9,66.3,56.8,40.6,33.1,21.0,49,30,14,29.51,29.38,10,2,18,0.00
2013-5-19,70.0,59.4,50.2,38.1,32.7,26.7,58,38,20,29.46,29.36,6,2,17,0.00
2013-5-20,66.6,55.5,47.7,46.7,40.9,32.7,85,59,38,29.62,29.44,5,2,13,0.06
2013-5-21,70.7,58.0,44.4,41.5,35.9,31.3,80,47,24,29.65,29.47,4,2,10,0.00
2013-5-22,77.3,59.5,46.0,49.9,39.2,33.0,79,50,23,29.68,29.49,8,2,16,0.00
2013-5-23,71.8,58.3,48.0,50.4,46.5,43.7,87,67,40,29.72,29.56,5,2,12,0.00
2013-5-24,83.5,65.5,46.9,52.8,44.8,36.6,88,53,20,29.60,29.50,4,1,10,0.00
2013-5-25,87.5,71.7,54.6,53.1,41.5,22.9,72,39,9,29.61,29.47,4,1,11,0.00
2013-5-26,84.9,71.1,56.3,45.6,33.5,19.9,45,27,9,29.55,29.47,6,2,13,0.00
2013-5-27,82.9,69.9,53.8,41.7,29.9,21.1,53,25,10,29.47,29.35,7,1,14,0.00
2013-5-28,80.6,65.3,49.6,46.6,39.9,28.2,65,41,17,29.45,29.16,6,1,12,0.00
2013-5-29,65.9,55.4,46.9,50.5,43.2,32.9,92,66,35,29.32,29.21,9,2,20,0.60
2013-5-30,68.7,59.0,46.7,35.9,31.3,24.4,62,36,19,29.48,29.27,10,2,26,0.00
2013-5-31,70.8,61.0,49.5,30.1,23.2,17.5,41,24,14,29.61,29.45,10,4,22,0.00
2013-6-1,71.0,59.2,47.9,40.1,36.8,23.6,64,45,23,29.83,29.62,8,2,15,0.00
2013-6-2,84.6,65.4,45.1,39.4,35.4,29.7,63,37,15,29.83,29.43,4,1,14,0.00
2013-6-3,89.8,74.0,54.6,47.8,32.4,22.5,43,24,9,29.55,29.36,8,2,20,0.00
2013-6-4,74.1,60.8,50.5,51.7,44.8,28.6,88,57,25,29.84,29.55,7,1,19,0.16
2013-6-5,61.5,52.0,46.2,48.3,45.7,42.9,89,79,61,29.85,29.75,3,0,7,0.00
2013-6-6,80.3,64.0,44.9,50.1,42.7,37.6,85,51,23,29.75,29.65,3,1,8,0.00
2013-6-7,83.1,67.0,52.6,47.0,42.6,38.8,67,43,24,29.74,29.42,5,1,11,0.00
2013-6-8,76.3,69.3,60.2,49.8,42.6,37.5,58,38,29,29.67,29.37,5,2,14,0.00
2013-6-9,89.7,72.2,49.2,48.0,39.7,30.8,71,36,12,29.67,29.54,4,1,10,0.00
2013-6-10,98.5,81.7,64.9,58.2,38.6,25.8,43,24,7,29.59,29.48,5,1,12,0.00
2013-6-11,99.0,81.9,64.3,49.2,29.7,-10.1,37,19,1,29.61,29.41,5,2,14,0.00
2013-6-12,92.7,77.8,61.1,53.1,34.2,27.1,57,22,10,29.77,29.61,6,2,13,0.00
2013-6-13,83.1,67.6,55.3,56.9,53.3,50.4,85,62,39,29.77,29.53,6,1,11,0.00
2013-6-14,89.3,75.0,61.3,52.9,44.4,32.3,64,37,13,29.62,29.51,9,2,19,0.00
2013-6-15,81.6,69.2,56.3,51.6,47.8,44.9,68,48,29,29.73,29.60,4,1,9,0.00
2013-6-16,83.9,69.7,56.3,55.2,45.9,34.0,79,46,19,29.78,29.67,8,1,16,0.00
2013-6-17,80.9,67.6,53.9,54.9,47.2,40.0,65,49,28,29.81,29.66,6,1,15,0.00
2013-6-18,83.4,68.1,54.0,52.8,50.1,43.0,85,56,26,29.77,29.51,8,2,16,0.00
2013-6-19,95.9,73.3,52.1,52.1,41.3,13.4,81,41,4,29.62,29.30,5,1,10,0.00
2013-6-20,89.5,75.6,59.5,53.2,35.4,19.9,70,27,8,29.57,29.38,4,2,10,0.00
2013-6-21,92.2,76.6,61.7,55.5,41.3,23.1,63,33,8,29.55,29.41,7,1,18,0.00
2013-6-22,87.8,69.7,57.1,50.4,46.9,36.2,67,47,16,29.60,29.39,6,1,14,0.00
2013-6-23,82.9,68.5,54.8,51.4,46.7,39.2,78,49,24,29.68,29.46,9,2,21,0.00
2013-6-24,88.9,75.3,58.1,51.1,40.7,26.0,65,33,12,29.55,29.38,4,1,11,0.00
2013-6-25,92.0,79.7,67.6,40.4,33.8,28.0,30,19,13,29.65,29.44,8,2,17,0.00
2013-6-26,97.9,81.0,60.6,46.8,38.3,27.7,49,24,9,29.73,29.65,4,1,11,0.00
2013-6-27,96.1,84.2,68.5,48.5,40.1,27.6,36,22,9,29.90,29.71,4,1,9,0.00
2013-6-28,91.3,76.1,60.6,62.4,52.0,44.2,88,46,26,29.92,29.77,6,1,13,0.10
2013-6-29,84.5,71.7,60.6,58.8,55.1,50.6,82,58,35,29.88,29.75,3,1,8,0.08
2013-6-30,78.7,68.7,61.9,58.1,54.4,51.7,75,61,43,29.85,29.78,4,2,8,0.00
2013-7-1,79.6,68.7,57.9,56.5,52.5,47.8,80,58,38,29.93,29.83,6,2,11,0.00
2013-7-2,83.2,69.7,55.1,55.1,49.4,43.9,80,52,27,29.91,29.77,6,1,13,0.00
2013-7-3,88.8,73.1,56.5,50.5,47.0,44.1,69,42,24,29.77,29.55,4,1,10,0.00
2013-7-4,91.3,77.4,64.3,49.9,46.1,42.6,49,34,23,29.64,29.55,4,1,11,0.00
2013-7-5,87.0,74.4,65.6,55.7,50.8,46.7,61,45,27,29.57,29.49,7,1,14,0.00
2013-7-6,90.8,76.5,63.9,53.0,49.5,46.1,66,40,23,29.63,29.49,6,2,14,0.00
2013-7-7,89.3,76.2,63.7,58.0,52.3,46.4,74,46,25,29.72,29.61,4,1,10,0.04
2013-7-8,95.7,76.7,62.0,57.4,50.9,31.7,78,46,10,29.76,29.66,10,2,17,0.00
2013-7-9,97.5,81.6,67.5,52.7,43.6,29.2,52,29,9,29.86,29.75,6,1,14,0.00
2013-7-10,93.5,76.7,62.5,57.0,50.7,43.5,59,42,23,29.89,29.66,4,1,9,0.00
2013-7-11,100.9,78.9,62.9,57.9,51.5,32.2,72,44,10,29.75,29.50,7,2,15,0.00
2013-7-12,92.9,75.6,64.9,62.0,53.9,48.4,85,51,24,29.72,29.57,6,1,15,0.14
2013-7-13,88.3,71.7,62.8,61.9,58.5,53.6,87,66,31,29.83,29.68,5,1,12,0.02
2013-7-14,80.3,70.0,59.2,62.0,58.2,54.0,88,68,43,29.89,29.72,5,2,11,0.04
2013-7-15,77.3,69.9,64.8,64.5,59.6,47.7,90,72,53,29.85,29.74,6,2,13,0.00
2013-7-16,86.4,70.6,54.2,53.4,48.7,44.7,82,49,25,29.85,29.76,6,2,12,0.00
2013-7-17,90.1,74.2,58.6,57.8,52.2,48.3,80,50,25,29.87,29.73,3,1,7,0.00
2013-7-18,92.5,75.4,63.5,56.7,52.1,46.5,67,46,25,29.82,29.72,8,2,16,0.02
2013-7-19,83.2,73.9,64.4,58.6,55.6,50.6,79,55,34,29.84,29.72,7,2,13,0.00
2013-7-20,90.9,72.2,59.8,58.5,53.2,48.1,82,55,25,29.73,29.58,7,1,15,0.00
2013-7-21,90.4,73.0,55.8,58.8,54.2,46.7,84,55,30,29.64,29.53,4,1,10,0.00
2013-7-22,93.6,79.3,64.3,56.7,50.9,37.7,67,40,23,29.65,29.53,4,1,10,0.00
2013-7-23,90.3,76.8,64.8,57.7,46.3,28.4,62,35,20,29.81,29.59,4,1,10,0.00
2013-7-24,83.5,72.3,60.5,60.9,54.2,45.5,76,55,31,29.85,29.67,9,2,17,0.00
2013-7-25,79.3,65.6,56.6,61.5,54.5,51.3,90,69,42,29.90,29.71,8,1,25,0.08
2013-7-26,84.6,70.7,60.1,55.8,51.0,43.9,76,53,25,29.92,29.78,5,1,14,0.50
2013-7-27,77.0,65.3,55.3,59.1,53.0,47.3,90,66,46,29.81,29.67,5,1,10,0.62
2013-7-28,73.9,63.2,58.5,62.0,58.0,54.6,94,84,60,29.73,29.56,3,1,8,0.00
2013-7-29,72.5,63.3,58.7,60.9,56.4,50.3,95,79,55,29.82,29.57,5,0,8,0.02
2013-7-30,89.7,72.0,59.1,58.0,51.4,45.7,78,52,24,29.87,29.79,3,1,12,0.02
2013-7-31,92.3,74.1,59.0,54.2,51.4,44.4,76,49,21,29.96,29.78,4,1,9,0.00
2013-8-1,90.8,72.5,60.4,58.3,53.7,44.7,77,55,24,29.87,29.62,4,1,13,0.00
2013-8-2,94.7,77.5,59.6,56.3,50.1,44.1,79,42,18,29.69,29.58,6,2,12,0.00
2013-8-3,90.5,71.2,60.4,60.4,57.0,49.3,91,65,26,29.92,29.69,12,1,26,0.36
2013-8-4,87.4,72.1,57.0,59.8,52.1,44.2,81,53,24,29.86,29.71,5,1,13,0.00
2013-8-5,88.4,72.2,62.2,57.3,50.9,45.2,78,49,25,29.75,29.66,6,1,14,0.02
2013-8-6,87.3,72.4,60.0,56.0,49.2,43.4,70,46,25,29.68,29.61,7,1,14,0.00
2013-8-7,76.0,66.0,59.5,56.6,52.3,45.2,82,62,43,29.77,29.64,5,1,11,0.00
2013-8-8,74.8,65.9,58.5,58.4,55.0,47.0,93,70,50,29.81,29.66,4,1,8,0.00
2013-8-9,81.4,66.7,54.3,52.2,49.4,43.7,80,56,28,29.83,29.77,5,1,11,0.00
2013-8-10,87.4,71.0,54.7,52.5,47.4,43.4,74,46,24,29.85,29.73,4,2,10,0.06
2013-8-11,81.7,70.7,60.1,54.3,48.2,44.0,68,47,28,29.83,29.77,5,1,12,0.00
2013-8-12,81.1,67.3,56.1,56.8,51.8,46.0,90,60,30,29.92,29.76,9,2,15,0.08
2013-8-13,79.9,66.5,53.9,54.9,50.1,46.4,85,58,34,29.88,29.77,6,1,12,0.00
2013-8-14,83.1,67.6,53.8,54.4,49.3,42.0,87,56,24,29.85,29.73,3,1,8,0.00
2013-8-15,87.1,69.4,55.8,54.0,46.6,40.1,63,46,23,29.82,29.71,4,1,12,0.00
2013-8-16,91.7,75.6,59.0,52.8,43.9,31.4,61,35,11,29.81,29.74,4,1,8,0.00
2013-8-17,95.7,76.9,59.6,58.3,45.5,19.8,82,40,6,29.80,29.65,3,1,7,0.00
2013-8-18,92.7,75.7,59.9,57.5,48.8,37.1,79,42,17,29.77,29.68,6,1,14,0.00
2013-8-19,96.1,78.8,60.1,51.8,44.7,28.9,65,34,9,29.76,29.65,4,1,9,0.00
2013-8-20,98.0,81.2,66.7,52.4,40.9,20.0,43,27,6,29.68,29.60,5,1,10,0.00
2013-8-21,90.6,77.5,65.9,55.9,47.9,42.0,66,37,24,29.79,29.67,6,1,12,0.00
2013-8-22,81.6,70.7,60.9,61.4,56.4,53.2,78,61,45,29.88,29.75,4,1,10,0.02
2013-8-23,88.5,72.0,60.9,58.5,53.9,49.0,82,55,26,29.82,29.60,4,1,8,0.00
2013-8-24,88.1,72.1,59.9,55.9,51.6,47.4,68,50,25,29.73,29.64,4,1,12,0.03
2013-8-25,90.0,74.4,60.4,54.7,51.1,46.8,69,46,24,29.79,29.72,4,1,10,0.00
2013-8-26,90.5,75.3,62.5,58.3,53.9,49.1,69,49,25,29.79,29.73,5,1,12,0.00
2013-8-27,92.0,78.1,64.5,57.3,53.5,49.9,69,45,25,29.79,29.67,4,1,9,0.00
2013-8-28,93.0,78.1,66.5,55.1,51.5,48.0,59,41,24,29.77,29.69,3,1,8,0.00
2013-8-29,94.0,80.6,68.2,51.0,47.8,44.9,45,33,21,29.82,29.74,4,1,10,0.00
2013-8-30,88.6,77.1,66.2,56.2,49.7,46.5,56,39,25,29.84,29.73,4,1,10,0.00
2013-8-31,90.9,75.5,63.5,56.8,49.7,45.5,68,42,23,29.77,29.68,7,1,17,0.00
2013-9-1,80.7,70.6,62.4,59.8,55.9,48.7,83,61,44,29.86,29.74,3,1,7,0.00
2013-9-2,92.2,75.0,59.3,57.7,52.7,46.3,82,50,22,29.78,29.65,4,1,10,0.00
2013-9-3,95.6,80.2,65.4,56.4,50.8,46.2,63,38,23,29.77,29.68,6,2,11,0.00
2013-9-4,91.5,77.8,67.0,56.3,51.4,48.3,55,41,24,29.84,29.76,7,1,16,0.00
2013-9-5,93.1,76.5,63.6,57.0,52.2,48.3,69,45,24,29.85,29.76,4,1,9,0.00
2013-9-6,95.1,79.4,68.5,52.5,49.2,44.3,49,36,22,29.81,29.68,5,1,12,0.00
2013-9-7,93.7,77.5,62.9,51.9,48.8,46.8,58,38,23,29.77,29.64,4,1,9,0.00
2013-9-8,89.4,75.0,64.4,51.5,48.0,44.4,54,40,24,29.67,29.51,4,1,8,0.00
2013-9-9,84.0,68.1,58.2,57.2,52.8,49.6,94,62,31,29.71,29.53,6,2,13,1.00
2013-9-10,64.7,60.0,57.4,59.5,57.6,56.2,96,92,81,29.83,29.67,4,1,6,0.36
2013-9-11,64.5,61.0,59.1,63.1,53.1,-75.5,100,91,30,29.85,29.80,7,2,14,4.16
2013-9-12,62.8,60.1,58.4,61.7,59.8,58.3,100,98,94,29.92,29.83,8,2,16,3.12
2013-9-13,59.1,58.4,57.8,58.5,58.0,57.6,99,98,97,29.83,29.73,1,0,4,0.22
2013-9-17,85.9,76.1,63.2,49.4,44.2,38.1,53,34,19,29.59,29.46,4,1,9,0.00
2013-9-18,85.4,70.0,59.4,51.9,45.3,40.1,61,42,24,29.53,29.42,5,1,17,0.00
2013-9-19,66.5,59.1,52.7,47.5,43.6,38.8,71,57,42,29.80,29.52,4,1,10,0.00
2013-9-20,71.5,58.5,46.3,47.9,43.9,41.3,83,60,33,29.80,29.65,3,1,9,0.00
2013-9-21,83.5,65.3,48.9,50.2,45.0,41.0,77,51,23,29.65,29.42,4,1,10,0.00
2013-9-22,78.3,65.6,54.8,51.0,45.6,38.8,83,50,30,29.42,29.22,4,1,11,0.04
2013-9-23,64.9,57.4,50.4,51.2,40.4,31.4,96,58,31,29.65,29.17,10,3,24,0.74
2013-9-24,77.0,60.5,43.9,46.7,37.1,31.1,72,43,21,29.74,29.46,4,1,9,0.00
2013-9-25,76.0,61.2,44.5,52.3,43.5,35.4,79,54,33,29.46,29.09,4,1,9,0.00
2013-9-26,67.1,57.0,46.5,47.1,43.3,34.6,76,61,38,29.41,29.17,4,1,10,0.00
2013-9-27,54.1,47.2,39.6,49.6,44.7,38.6,96,91,71,29.60,29.33,2,0,9,0.36
2013-9-28,66.7,52.3,36.9,38.6,33.6,27.7,96,52,28,29.73,29.59,8,1,19,0.00
2013-9-29,74.7,60.5,42.9,43.5,32.5,21.8,65,38,15,29.71,29.50,4,1,14,0.00
2013-9-30,83.2,68.2,55.1,47.2,36.9,27.1,47,32,18,29.52,29.39,3,1,10,0.00
2013-10-1,73.5,61.6,52.2,47.2,39.4,27.2,61,45,21,29.71,29.52,3,1,8,0.00
2013-10-2,76.3,61.6,49.4,47.1,41.1,35.4,70,50,24,29.59,29.49,6,1,15,0.00
2013-10-3,60.6,51.5,41.8,46.6,41.5,36.7,93,69,51,29.55,29.35,6,1,13,0.04
2013-10-4,47.7,38.1,32.5,46.1,34.0,26.6,97,85,66,29.77,29.38,3,1,12,0.60
2013-10-5,63.8,45.3,29.2,27.8,23.3,16.1,83,47,16,29.79,29.70,4,1,15,0.00
2013-10-6,68.4,55.1,36.7,37.1,28.0,16.2,61,36,23,29.86,29.76,4,1,10,0.00
2013-10-7,78.0,61.7,44.6,41.0,33.8,25.2,66,38,14,29.80,29.52,3,1,8,0.00
2013-10-8,78.3,62.4,52.4,42.8,34.7,26.6,57,36,16,29.51,29.34,3,0,9,0.00
2013-10-9,63.5,56.1,48.5,43.8,38.8,31.8,76,52,39,29.58,29.41,3,1,10,0.00
2013-10-10,59.5,50.4,45.0,47.0,43.1,39.3,87,76,62,29.56,29.13,4,1,8,0.06
2013-10-11,63.8,53.8,42.6,39.9,33.9,28.4,79,48,30,29.64,29.07,6,1,22,0.00
2013-10-12,55.2,45.9,39.8,41.2,38.7,35.1,89,76,58,29.78,29.64,3,1,8,0.00
2013-10-13,60.0,48.5,36.6,43.5,39.4,33.3,88,71,52,29.73,29.47,2,1,8,0.00
2013-10-14,52.3,45.9,37.6,41.3,36.9,30.8,81,70,55,29.75,29.41,6,1,13,0.08
2013-10-15,43.5,38.5,35.7,30.8,27.4,24.1,76,64,53,29.88,29.75,3,1,9,0.00
2013-10-16,52.4,40.4,28.6,32.6,27.8,24.3,86,62,37,29.78,29.58,3,1,8,0.00
2013-10-17,48.2,40.9,33.3,33.6,30.0,24.2,78,65,55,29.71,29.60,3,1,9,0.00
2013-10-18,45.2,36.9,31.3,38.1,30.2,26.5,96,78,52,29.77,29.63,4,1,10,0.24
2013-10-19,63.5,50.8,31.5,29.1,25.0,22.0,83,38,23,29.68,29.49,5,1,12,0.00
2013-10-20,54.4,43.9,34.3,35.6,30.6,23.7,92,64,30,29.71,29.47,6,1,13,0.22
2013-10-21,60.2,45.4,30.4,40.7,30.0,25.6,95,60,29,29.76,29.66,4,0,11,0.01
2013-10-22,63.5,51.9,38.8,34.3,31.0,26.3,67,45,29,29.81,29.71,4,1,10,0.00
2013-10-23,63.5,52.5,42.7,34.6,32.2,28.0,65,47,30,29.82,29.68,5,1,10,0.00
2013-10-24,54.2,42.9,33.3,39.3,34.7,29.7,88,73,54,29.87,29.78,2,0,6,0.00
2013-10-25,69.3,52.1,36.4,42.0,35.1,30.6,84,56,25,29.84,29.68,3,0,11,0.00
2013-10-26,63.0,51.8,42.2,38.0,33.2,29.2,65,49,32,29.95,29.72,3,0,8,0.00
2013-10-27,70.5,55.8,43.4,33.9,28.4,23.2,64,38,18,29.72,29.43,6,1,16,0.00
2013-10-28,51.3,37.4,31.8,33.3,31.0,27.0,95,80,38,29.64,29.46,3,1,9,0.04
2013-10-29,37.4,34.4,32.0,34.9,32.3,31.1,96,92,84,29.59,29.44,1,0,6,0.03
2013-10-30,41.4,35.3,32.9,38.0,33.1,28.4,95,91,71,29.49,29.39,2,0,8,0.26
2013-10-31,55.0,45.0,33.0,28.0,23.5,19.6,76,44,28,29.45,29.37,9,2,22,0.00
2013-11-1,53.6,43.6,34.1,32.8,27.2,22.6,72,53,32,29.79,29.45,3,1,15,0.00
2013-11-2,59.7,45.1,31.7,34.6,26.5,20.5,73,50,26,29.79,29.33,2,0,9,0.00
2013-11-3,42.1,39.8,37.4,29.2,28.4,27.6,68,63,58,29.33,29.28,0,0,6,0.00
2013-11-4,40.9,36.3,29.8,22.0,19.0,14.7,65,49,36,29.59,29.46,0,0,12,0.00
2013-11-5,44.7,34.8,29.8,25.0,16.7,6.4,73,48,23,29.69,29.47,6,1,15,0.00
2013-11-6,51.3,40.4,25.3,19.9,16.3,6.5,57,37,27,29.89,29.66,9,1,19,0.00
2013-11-7,55.4,41.9,29.0,29.2,24.6,19.4,65,50,34,29.95,29.56,2,0,6,0.00
2013-11-8,65.4,56.3,35.8,26.0,21.7,15.5,66,27,17,29.59,29.38,7,2,22,0.00
2013-11-9,60.1,47.3,35.8,33.9,29.1,21.7,70,50,27,29.84,29.59,4,1,10,0.00
2013-11-10,68.0,49.7,35.4,35.9,27.3,23.0,70,45,20,29.82,29.73,3,0,6,0.00
2013-11-11,68.3,45.8,30.7,31.8,26.1,21.4,87,51,17,30.22,29.77,6,1,14,0.00
2013-11-12,57.2,42.1,28.6,35.3,31.0,25.1,88,65,41,30.21,29.94,3,0,6,0.00
2013-11-13,69.7,54.7,39.1,30.0,21.4,14.7,66,30,15,29.94,29.59,3,1,7,0.00
2013-11-14,57.9,49.7,39.1,34.5,29.6,21.6,68,46,26,29.68,29.33,5,1,11,0.00
2013-11-15,64.5,49.1,32.9,30.1,23.7,14.5,75,41,14,29.33,29.05,6,1,12,0.00
2013-11-16,57.0,47.0,39.0,31.5,22.4,15.8,70,38,23,29.11,28.89,7,2,17,0.00
2013-11-17,57.5,43.3,32.3,26.2,19.6,14.0,63,40,17,29.62,29.11,9,2,19,0.00
2013-11-18,66.8,44.6,27.8,26.4,18.6,14.1,60,38,13,29.71,29.58,5,1,11,0.00
2013-11-19,61.2,50.6,38.2,31.2,22.5,13.9,49,33,19,29.58,29.30,5,1,15,0.00
2013-11-20,58.5,49.4,28.7,31.1,27.5,23.2,77,43,28,29.60,29.33,8,1,18,0.00
2013-11-21,27.8,17.1,13.8,23.8,13.7,10.0,90,84,77,30.10,29.61,4,1,10,0.00
2013-11-22,35.3,26.4,17.8,23.0,18.0,13.0,80,69,45,30.14,29.99,3,0,7,0.08
2013-11-23,36.2,28.8,23.7,23.9,20.2,12.7,84,68,46,30.14,29.85,1,0,5,0.08
2013-11-24,39.3,29.4,21.0,27.4,22.8,17.1,86,75,43,29.85,29.51,4,0,11,0.00
2013-11-25,42.7,36.7,31.8,27.2,22.9,14.9,76,58,33,29.86,29.57,8,1,18,0.00
2013-11-26,49.8,38.6,30.7,25.0,21.6,18.6,73,51,30,29.94,29.80,4,1,9,0.00
2013-11-27,64.0,44.8,27.3,33.7,24.0,19.3,73,46,21,29.80,29.59,2,0,8,0.00
2013-11-28,45.4,38.6,33.7,28.1,25.2,20.4,69,58,47,29.79,29.68,3,0,7,0.00
2013-11-29,63.1,47.7,33.7,27.4,22.1,16.9,72,40,19,29.73,29.64,6,1,11,0.00
2013-11-30,60.5,48.3,37.1,21.9,17.6,14.4,53,30,19,29.74,29.66,4,1,8,0.00
2013-12-1,55.0,45.6,30.7,26.5,22.0,17.8,66,40,25,29.72,29.42,9,2,21,0.00
2013-12-2,58.7,51.9,44.6,26.4,23.5,21.0,46,33,23,29.44,29.13,10,4,27,0.00
2013-12-3,55.2,36.1,11.5,29.3,20.0,8.5,86,55,27,29.31,29.04,6,2,13,0.00
2013-12-4,12.5,7.6,1.4,8.4,3.7,-3.5,86,80,71,29.57,29.28,2,0,8,0.00
2013-12-5,5.4,1.5,-4.6,0.9,-3.4,-9.1,83,77,66,29.60,29.48,3,0,6,0.00
2013-12-6,7.8,0.5,-4.0,1.1,-4.1,-7.9,84,78,67,29.71,29.60,0,0,4,0.00
2013-12-7,9.2,2.4,-3.9,4.1,-2.0,-8.1,82,78,68,29.68,29.27,1,0,5,0.00
2013-12-8,19.1,8.8,3.6,10.5,4.3,0.3,84,78,64,29.53,29.21,4,0,10,0.00
2013-12-9,26.7,14.8,-2.7,9.6,3.0,-7.5,84,57,33,29.63,29.49,6,1,12,0.00
2013-12-10,46.3,33.6,20.8,17.7,12.3,6.1,59,40,27,29.78,29.43,9,3,23,0.10
2013-12-11,27.4,20.6,13.8,18.8,14.2,9.5,84,73,59,29.87,29.78,5,0,11,0.00
2013-12-12,49.3,33.3,18.8,20.3,16.8,11.6,84,51,26,29.83,29.48,3,0,6,0.00
2013-12-13,49.2,37.4,30.2,23.0,16.7,10.9,61,43,24,29.70,29.39,6,1,10,0.00
2013-12-14,45.1,34.7,24.4,21.2,16.9,13.9,70,48,28,29.82,29.68,7,2,14,0.00
2013-12-15,56.1,47.1,35.9,24.5,17.8,14.1,47,31,21,29.72,29.62,10,3,24,0.00
2013-12-16,63.3,52.3,40.7,18.9,14.4,10.0,32,22,12,29.80,29.63,11,3,24,0.00
2013-12-17,62.7,49.9,30.8,23.3,16.5,12.6,54,28,16,29.87,29.63,6,2,12,0.00
2013-12-18,66.7,57.1,47.1,22.4,15.4,12.9,26,19,12,29.62,29.28,6,2,13,0.00
2013-12-19,53.8,34.3,16.1,25.8,20.5,14.2,90,59,24,29.42,29.11,7,2,13,0.00
2013-12-20,23.9,19.5,16.0,20.9,17.1,14.2,91,88,84,29.41,29.18,3,0,8,0.00
2013-12-21,31.2,23.3,16.3,23.8,19.7,14.3,92,84,60,29.42,29.08,5,1,10,0.00
2013-12-22,39.2,28.0,17.8,23.8,18.2,12.9,88,68,36,29.77,29.43,7,1,16,0.02
2013-12-23,45.9,27.9,16.1,26.3,20.6,13.7,89,74,42,29.81,29.63,5,1,15,0.00
2013-12-24,51.0,41.7,29.5,29.7,19.8,8.1,60,41,25,29.82,29.50,8,3,19,0.02
2013-12-25,45.1,34.2,20.8,16.5,10.5,5.7,71,39,20,29.92,29.73,6,2,14,0.00
2013-12-26,54.8,44.5,28.9,16.3,12.2,3.8,45,27,18,29.85,29.71,6,2,15,0.00
2013-12-27,59.3,45.7,31.3,25.5,20.3,14.5,52,36,23,29.82,29.60,3,1,7,0.00
2013-12-28,56.6,39.6,21.0,26.6,22.2,17.4,84,51,29,29.77,29.42,6,2,12,0.00
2013-12-29,40.2,26.5,13.7,21.9,15.0,10.0,85,62,28,29.78,29.42,4,1,15,0.02
2013-12-30,49.8,40.4,30.2,17.2,13.7,10.7,53,33,23,29.73,29.49,7,2,15,0.00
2013-12-31,58.4,45.7,30.4,21.8,19.8,14.8,54,36,23,29.63,29.47,5,1,12,0.00
2014-1-1,43.9,33.8,24.8,30.0,24.7,20.5,86,70,42,29.85,29.43,7,2,12,0.00
2014-1-2,42.0,28.3,18.5,25.7,20.9,15.9,88,73,44,29.80,29.54,2,0,8,0.00